createdAt,value
2023-01-19T00:01:30.374Z,17.33
2023-01-19T00:03:02.247Z,14.04
2023-01-19T00:04:38.626Z,14.77
2023-01-19T00:06:10.125Z,15.46
2023-01-19T00:07:41.501Z,15.92
2023-01-19T00:09:12.856Z,13.72
2023-01-19T00:10:44.252Z,15.84
2023-01-19T00:12:15.669Z,15.01
2023-01-19T00:13:47.060Z,13.85
2023-01-19T00:15:18.946Z,15.51
2023-01-19T00:16:50.404Z,12.36
2023-01-19T00:18:21.725Z,14.68
2023-01-19T00:19:53.384Z,16.34
2023-01-19T00:21:24.939Z,14.69
2023-01-19T00:22:56.342Z,15.76
2023-01-19T00:24:27.586Z,14.01
2023-01-19T00:25:58.872Z,14.58
2023-01-19T00:27:30.255Z,14.06
2023-01-19T00:29:01.551Z,14.84
2023-01-19T00:30:33.059Z,13.86
2023-01-19T00:32:04.458Z,14.58
2023-01-19T00:33:35.752Z,14.10
2023-01-19T00:35:07.094Z,15.08
2023-01-19T00:36:38.350Z,13.10
2023-01-19T00:38:09.869Z,14.33
2023-01-19T00:39:41.268Z,16.15
2023-01-19T00:41:12.423Z,14.51
2023-01-19T00:46:24.552Z,14.76
2023-01-19T00:47:56.097Z,13.86
2023-01-19T00:49:27.802Z,14.14
2023-01-19T00:50:59.064Z,17.32
2023-01-19T00:52:30.861Z,15.26
2023-01-19T00:54:02.266Z,16.01
2023-01-19T00:55:33.492Z,16.47
2023-01-19T00:57:04.718Z,14.87
2023-01-19T00:58:35.967Z,13.77
2023-01-19T01:00:07.272Z,15.88
2023-01-19T01:01:44.970Z,13.93
2023-01-19T01:03:17.607Z,16.72
2023-01-19T01:04:48.971Z,15.84
2023-01-19T01:06:20.197Z,14.99
2023-01-19T01:07:51.513Z,14.30
2023-01-19T01:09:22.773Z,14.04
2023-01-19T01:10:54.276Z,13.35
2023-01-19T01:12:25.677Z,15.72
2023-01-19T01:13:57.218Z,16.49
2023-01-19T01:15:30.312Z,16.64
2023-01-19T01:17:01.500Z,15.82
2023-01-19T01:18:33.014Z,15.20
2023-01-19T01:20:04.658Z,13.93
2023-01-19T01:21:35.913Z,13.34
2023-01-19T01:23:07.332Z,15.32
2023-01-19T01:24:38.648Z,12.92
2023-01-19T01:26:09.846Z,13.11
2023-01-19T01:27:41.402Z,13.36
2023-01-19T01:29:12.859Z,13.22
2023-01-19T01:30:44.300Z,13.79
2023-01-19T01:32:15.592Z,14.36
2023-01-19T01:33:47.118Z,16.07
2023-01-19T01:35:18.757Z,16.62
2023-01-19T01:36:50.098Z,14.21
2023-01-19T01:38:21.449Z,15.40
2023-01-19T01:39:52.907Z,12.08
2023-01-19T01:41:25.540Z,14.01
2023-01-19T01:42:58.513Z,14.67
2023-01-19T01:44:30.897Z,15.49
2023-01-19T01:46:02.261Z,16.68
2023-01-19T01:47:33.673Z,13.12
2023-01-19T01:49:05.135Z,14.25
2023-01-19T01:50:36.444Z,13.68
2023-01-19T01:52:07.802Z,16.54
2023-01-19T01:53:39.265Z,14.52
2023-01-19T01:55:10.558Z,16.02
2023-01-19T01:56:42.199Z,16.69
2023-01-19T01:58:13.548Z,15.93
2023-01-19T01:59:44.901Z,14.94
2023-01-19T02:01:16.144Z,16.06
2023-01-19T02:02:47.470Z,15.48
2023-01-19T02:04:18.830Z,14.58
2023-01-19T02:05:50.160Z,12.81
2023-01-19T02:07:21.524Z,13.97
2023-01-19T02:08:52.819Z,16.15
2023-01-19T02:10:24.152Z,13.36
2023-01-19T02:11:55.552Z,16.91
2023-01-19T02:13:26.835Z,14.64
2023-01-19T02:14:58.562Z,11.57
2023-01-19T02:16:29.908Z,13.39
2023-01-19T02:18:01.313Z,13.65
2023-01-19T02:19:32.703Z,14.56
2023-01-19T02:21:03.973Z,13.45
2023-01-19T02:22:35.406Z,15.57
2023-01-19T02:24:06.698Z,13.21
2023-01-19T02:25:38.232Z,16.14
2023-01-19T02:27:09.721Z,12.07
2023-01-19T02:28:41.046Z,11.56
2023-01-19T02:30:12.321Z,14.48
2023-01-19T02:31:44.169Z,14.20
2023-01-19T02:33:15.563Z,11.75
2023-01-19T02:34:46.973Z,12.02
2023-01-19T02:36:18.491Z,11.93
2023-01-19T02:37:49.883Z,13.25
2023-01-19T02:39:21.189Z,11.65
2023-01-19T02:40:52.592Z,13.67
2023-01-19T02:42:23.927Z,14.27
2023-01-19T02:43:55.237Z,14.48
2023-01-19T02:45:26.622Z,14.28
2023-01-19T02:46:58.545Z,13.34
2023-01-19T02:48:29.857Z,13.14
2023-01-19T02:50:01.590Z,14.15
2023-01-19T02:51:32.866Z,15.69
2023-01-19T02:53:04.189Z,14.24
2023-01-19T02:54:35.555Z,14.88
2023-01-19T02:56:06.929Z,15.47
2023-01-19T02:57:38.715Z,14.57
2023-01-19T02:59:09.946Z,14.97
2023-01-19T03:00:41.171Z,12.42
2023-01-19T03:02:12.668Z,14.47
2023-01-19T03:03:44.111Z,13.31
2023-01-19T03:05:15.597Z,15.89
2023-01-19T03:06:46.895Z,13.95
2023-01-19T03:08:18.105Z,14.33
2023-01-19T03:09:49.322Z,15.62
2023-01-19T03:11:20.670Z,14.78
2023-01-19T03:12:52.045Z,16.87
2023-01-19T03:14:23.248Z,13.81
2023-01-19T03:15:54.779Z,13.57
2023-01-19T03:17:26.163Z,13.69
2023-01-19T03:18:58.010Z,13.82
2023-01-19T03:20:30.274Z,11.33
2023-01-19T03:22:01.499Z,14.17
2023-01-19T03:23:32.676Z,12.07
2023-01-19T03:25:04.284Z,10.29
2023-01-19T03:26:35.775Z,11.55
2023-01-19T03:28:07.388Z,13.88
2023-01-19T03:29:38.697Z,13.88
2023-01-19T03:31:10.006Z,15.33
2023-01-19T03:32:41.215Z,12.79
2023-01-19T03:34:12.497Z,12.78
2023-01-19T03:35:43.819Z,11.91
2023-01-19T03:37:15.148Z,13.27
2023-01-19T03:38:46.588Z,15.91
2023-01-19T03:40:17.908Z,12.55
2023-01-19T03:41:49.253Z,13.84
2023-01-19T03:43:21.828Z,11.48
2023-01-19T03:44:53.149Z,13.54
2023-01-19T03:46:29.399Z,11.70
2023-01-19T03:48:00.772Z,12.61
2023-01-19T03:49:32.255Z,11.25
2023-01-19T03:51:03.505Z,10.99
2023-01-19T03:52:34.653Z,14.49
2023-01-19T03:54:05.972Z,10.84
2023-01-19T03:55:37.170Z,14.94
2023-01-19T03:57:08.439Z,14.89
2023-01-19T03:58:39.753Z,13.45
2023-01-19T04:00:11.062Z,12.90
2023-01-19T04:01:42.697Z,11.93
2023-01-19T04:03:14.085Z,12.55
2023-01-19T04:04:45.388Z,11.61
2023-01-19T04:06:16.594Z,11.37
2023-01-19T04:07:47.904Z,13.09
2023-01-19T04:09:20.136Z,14.05
2023-01-19T04:10:51.837Z,10.81
2023-01-19T04:12:23.041Z,12.79
2023-01-19T04:13:59.271Z,12.93
2023-01-19T04:15:30.677Z,13.83
2023-01-19T04:17:02.615Z,12.08
2023-01-19T04:18:34.930Z,12.87
2023-01-19T04:20:06.292Z,12.84
2023-01-19T04:21:37.936Z,8.73
2023-01-19T04:23:09.620Z,10.12
2023-01-19T04:24:41.169Z,11.56
2023-01-19T04:26:12.573Z,10.69
2023-01-19T04:27:44.015Z,10.20
2023-01-19T04:29:15.605Z,13.53
2023-01-19T04:30:47.339Z,14.84
2023-01-19T04:32:18.820Z,13.95
2023-01-19T04:33:50.412Z,11.76
2023-01-19T04:35:21.744Z,11.29
2023-01-19T04:36:52.975Z,13.59
2023-01-19T04:38:24.265Z,11.80
2023-01-19T04:39:55.565Z,11.48
2023-01-19T04:41:26.866Z,10.35
2023-01-19T04:42:58.777Z,12.06
2023-01-19T04:44:30.193Z,10.10
2023-01-19T04:46:01.400Z,7.41
2023-01-19T04:47:32.682Z,9.75
2023-01-19T04:49:04.075Z,7.17
2023-01-19T04:50:35.600Z,10.69
2023-01-19T04:52:06.797Z,9.04
2023-01-19T04:53:38.108Z,8.44
2023-01-19T04:55:09.302Z,11.19
2023-01-19T04:56:40.905Z,12.26
2023-01-19T04:58:12.286Z,12.27
2023-01-19T04:59:44.023Z,10.96
2023-01-19T05:01:15.469Z,14.27
2023-01-19T05:03:28.560Z,12.88
2023-01-19T05:05:00.151Z,13.56
2023-01-19T05:06:31.839Z,14.66
2023-01-19T05:08:03.282Z,13.90
2023-01-19T05:09:34.835Z,14.20
2023-01-19T05:11:06.068Z,13.71
2023-01-19T05:12:37.494Z,11.89
2023-01-19T05:14:08.673Z,12.54
2023-01-19T05:15:40.194Z,13.08
2023-01-19T05:17:11.612Z,14.43
2023-01-19T05:18:43.035Z,15.90
2023-01-19T05:20:16.371Z,14.79
2023-01-19T05:21:48.051Z,14.05
2023-01-19T05:23:19.428Z,14.70
2023-01-19T05:24:51.120Z,16.76
2023-01-19T05:26:22.634Z,15.91
2023-01-19T05:27:54.103Z,13.22
2023-01-19T05:29:25.704Z,14.26
2023-01-19T05:30:57.730Z,12.79
2023-01-19T05:32:29.479Z,13.82
2023-01-19T05:34:05.989Z,14.71
2023-01-19T05:35:37.445Z,15.46
2023-01-19T05:37:08.888Z,16.31
2023-01-19T05:38:40.382Z,15.05
2023-01-19T05:40:11.847Z,14.26
2023-01-19T05:41:43.574Z,14.15
2023-01-19T05:43:15.008Z,13.65
2023-01-19T05:44:46.632Z,11.66
2023-01-19T05:46:18.197Z,12.08
2023-01-19T05:47:49.499Z,12.51
2023-01-19T05:49:20.889Z,13.42
2023-01-19T05:50:52.376Z,11.15
2023-01-19T05:52:23.624Z,11.18
2023-01-19T05:53:55.139Z,9.37
2023-01-19T05:55:26.949Z,10.65
2023-01-19T05:56:58.660Z,11.12
2023-01-19T05:58:30.558Z,12.00
2023-01-19T06:00:02.358Z,10.85
2023-01-19T06:01:34.216Z,12.67
2023-01-19T06:03:05.869Z,12.46
2023-01-19T06:04:37.729Z,11.04
2023-01-19T06:06:09.000Z,10.95
2023-01-19T06:07:40.335Z,11.66
2023-01-19T06:09:11.585Z,14.27
2023-01-19T06:10:43.169Z,12.27
2023-01-19T06:12:14.751Z,10.86
2023-01-19T06:13:46.359Z,12.78
2023-01-19T06:15:18.028Z,11.82
2023-01-19T06:16:49.507Z,11.85
2023-01-19T06:18:20.927Z,11.03
2023-01-19T06:19:52.740Z,10.78
2023-01-19T06:21:24.065Z,8.94
2023-01-19T06:22:55.437Z,10.96
2023-01-19T06:24:26.712Z,10.04
2023-01-19T06:25:58.182Z,7.65
2023-01-19T06:27:29.479Z,10.63
2023-01-19T06:29:00.764Z,9.01
2023-01-19T06:30:32.023Z,10.34
2023-01-19T06:32:03.307Z,9.41
2023-01-19T06:33:35.778Z,9.21
2023-01-19T06:35:07.175Z,7.68
2023-01-19T06:36:38.476Z,6.77
2023-01-19T06:38:09.723Z,6.76
2023-01-19T06:39:41.085Z,7.90
2023-01-19T06:41:12.498Z,7.26
2023-01-19T06:42:44.019Z,6.50
2023-01-19T06:44:16.391Z,6.90
2023-01-19T06:45:47.800Z,7.90
2023-01-19T06:47:19.305Z,6.87
2023-01-19T06:48:50.849Z,5.92
2023-01-19T06:50:22.360Z,7.81
2023-01-19T06:51:53.923Z,7.04
2023-01-19T06:53:25.258Z,6.57
2023-01-19T06:54:57.078Z,6.33
2023-01-19T06:56:29.341Z,6.08
2023-01-19T06:58:00.604Z,7.48
2023-01-19T06:59:32.109Z,4.87
2023-01-19T07:01:03.508Z,4.56
2023-01-19T07:02:35.323Z,6.24
2023-01-19T07:04:07.228Z,6.75
2023-01-19T07:05:39.138Z,8.91
2023-01-19T07:07:10.620Z,5.81
2023-01-19T07:08:42.005Z,6.87
2023-01-19T07:10:13.168Z,5.09
2023-01-19T07:11:44.576Z,5.25
2023-01-19T07:13:15.961Z,6.09
2023-01-19T07:14:49.872Z,7.08
2023-01-19T07:16:21.290Z,7.75
2023-01-19T07:17:52.769Z,5.33
2023-01-19T07:19:23.995Z,6.58
2023-01-19T07:20:55.296Z,5.13
2023-01-19T07:22:26.791Z,5.45
2023-01-19T07:23:58.323Z,6.69
2023-01-19T07:25:29.771Z,8.35
2023-01-19T07:27:01.099Z,5.04
2023-01-19T07:28:32.379Z,6.26
2023-01-19T07:30:03.940Z,4.03
2023-01-19T07:31:35.802Z,4.71
2023-01-19T07:33:07.208Z,3.66
2023-01-19T07:34:38.645Z,4.35
2023-01-19T07:36:09.982Z,5.41
2023-01-19T07:37:41.417Z,7.03
2023-01-19T07:39:12.945Z,6.76
2023-01-19T07:40:44.360Z,7.48
2023-01-19T07:42:15.653Z,4.50
2023-01-19T07:43:47.042Z,4.32
2023-01-19T07:45:18.479Z,3.77
2023-01-19T07:46:49.715Z,6.87
2023-01-19T07:48:21.095Z,7.31
2023-01-19T07:49:52.672Z,5.01
2023-01-19T07:51:23.974Z,6.17
2023-01-19T07:52:55.351Z,4.42
2023-01-19T07:54:26.700Z,5.68
2023-01-19T07:55:58.211Z,5.74
2023-01-19T07:57:29.547Z,4.74
2023-01-19T07:59:00.694Z,6.48
2023-01-19T08:00:32.194Z,5.90
2023-01-19T08:02:03.769Z,8.64
2023-01-19T08:03:35.083Z,8.16
2023-01-19T08:05:06.475Z,8.85
2023-01-19T08:06:37.781Z,7.01
2023-01-19T08:08:09.158Z,9.56
2023-01-19T08:09:40.547Z,6.31
2023-01-19T08:11:12.176Z,7.42
2023-01-19T08:12:43.767Z,9.09
2023-01-19T08:14:15.009Z,12.11
2023-01-19T08:15:46.253Z,12.77
2023-01-19T08:17:17.966Z,11.33
2023-01-19T08:18:49.339Z,12.88
2023-01-19T08:20:20.855Z,8.72
2023-01-19T08:21:52.173Z,8.29
2023-01-19T08:23:23.435Z,9.65
2023-01-19T08:24:54.777Z,11.89
2023-01-19T08:26:26.459Z,10.04
2023-01-19T08:27:57.825Z,10.96
2023-01-19T08:29:29.032Z,10.61
2023-01-19T08:31:11.180Z,11.84
2023-01-19T08:32:50.116Z,12.54
2023-01-19T08:34:21.715Z,11.26
2023-01-19T08:35:58.190Z,10.72
2023-01-19T08:37:29.799Z,6.63
2023-01-19T08:39:07.360Z,12.76
2023-01-19T08:40:48.861Z,12.70
2023-01-19T08:42:24.355Z,13.65
2023-01-19T08:44:01.108Z,13.71
2023-01-19T08:45:34.768Z,16.67
2023-01-19T08:47:06.328Z,11.14
2023-01-19T08:48:39.748Z,13.15
2023-01-19T08:50:11.722Z,12.10
2023-01-19T08:51:43.169Z,14.08
2023-01-19T08:53:14.696Z,15.71
2023-01-19T08:54:46.186Z,17.58
2023-01-19T08:56:19.598Z,17.28
2023-01-19T08:57:51.810Z,22.24
2023-01-19T08:59:23.086Z,15.20
2023-01-19T09:00:54.552Z,11.96
2023-01-19T09:02:31.085Z,11.08
2023-01-19T09:04:02.675Z,13.79
2023-01-19T09:05:34.190Z,12.58
2023-01-19T09:08:38.019Z,20.67
2023-01-19T09:10:09.574Z,10.44
2023-01-19T09:11:41.203Z,14.59
2023-01-19T09:13:13.310Z,19.36
2023-01-19T09:14:44.737Z,11.72
2023-01-19T09:16:16.222Z,9.45
2023-01-19T09:17:47.815Z,13.20
2023-01-19T09:19:19.183Z,15.00
2023-01-19T09:20:50.819Z,17.04
2023-01-19T09:22:22.308Z,11.53
2023-01-19T09:25:52.488Z,15.44
2023-01-19T09:27:23.815Z,19.50
2023-01-19T09:28:55.292Z,22.08
2023-01-19T09:30:43.406Z,14.37
2023-01-19T09:32:14.765Z,11.84
2023-01-19T09:33:46.722Z,19.76
2023-01-19T09:35:34.786Z,24.98
2023-01-19T09:37:12.803Z,24.47
2023-01-19T09:38:44.211Z,21.67
2023-01-19T09:40:15.872Z,15.16
2023-01-19T09:43:38.487Z,22.60
2023-01-19T09:45:12.116Z,25.40
2023-01-19T09:46:43.856Z,26.09
2023-01-19T09:48:15.419Z,23.68
2023-01-19T09:49:46.819Z,21.45
2023-01-19T09:51:18.128Z,24.75
2023-01-19T09:52:49.869Z,19.66
2023-01-19T09:54:21.437Z,20.60
2023-01-19T09:55:52.968Z,20.45
2023-01-19T09:57:24.514Z,29.82
2023-01-19T09:58:55.862Z,23.39
2023-01-19T10:00:27.245Z,34.48
2023-01-19T10:01:58.790Z,29.91
2023-01-19T10:03:30.299Z,31.89
2023-01-19T10:05:01.710Z,33.44
2023-01-19T10:06:33.227Z,29.67
2023-01-19T10:08:04.594Z,21.21
2023-01-19T10:09:35.969Z,15.99
2023-01-19T10:11:07.615Z,23.79
2023-01-19T10:12:38.850Z,15.84
2023-01-19T10:14:11.217Z,26.97
2023-01-19T10:15:42.694Z,31.70
2023-01-19T10:17:13.944Z,28.85
2023-01-19T10:18:45.055Z,34.27
2023-01-19T10:20:16.441Z,34.32
2023-01-19T10:21:48.110Z,29.20
2023-01-19T10:23:19.551Z,29.23
2023-01-19T10:24:50.963Z,34.03
2023-01-19T10:26:22.579Z,28.48
2023-01-19T10:27:54.375Z,24.24
2023-01-19T10:29:25.607Z,20.02
2023-01-19T10:30:57.201Z,20.68
2023-01-19T10:32:28.409Z,24.40
2023-01-19T10:33:59.746Z,29.54
2023-01-19T10:35:31.178Z,19.66
2023-01-19T10:37:02.665Z,31.03
2023-01-19T10:38:33.921Z,33.16
2023-01-19T10:40:05.417Z,36.38
2023-01-19T10:41:36.741Z,28.60
2023-01-19T10:43:14.225Z,38.19
2023-01-19T10:44:45.436Z,38.16
2023-01-19T10:46:16.793Z,40.90
2023-01-19T10:47:48.141Z,33.41
2023-01-19T10:49:19.460Z,22.02
2023-01-19T10:50:51.195Z,22.99
2023-01-19T10:52:22.817Z,24.78
2023-01-19T10:53:54.255Z,32.05
2023-01-19T10:55:25.499Z,23.49
2023-01-19T10:57:01.762Z,30.75
2023-01-19T10:58:33.046Z,19.13
2023-01-19T11:00:04.383Z,19.85
2023-01-19T11:01:36.159Z,21.77
2023-01-19T11:03:07.887Z,36.56
2023-01-19T11:04:39.277Z,31.94
2023-01-19T11:06:10.749Z,43.50
2023-01-19T11:07:42.261Z,25.64
2023-01-19T11:09:13.476Z,40.89
2023-01-19T11:10:45.177Z,44.42
2023-01-19T11:12:16.526Z,40.47
2023-01-19T11:13:48.310Z,41.91
2023-01-19T11:15:19.655Z,40.62
2023-01-19T11:16:50.999Z,43.91
2023-01-19T11:18:22.538Z,45.71
2023-01-19T11:19:54.157Z,39.55
2023-01-19T11:21:26.060Z,51.18
2023-01-19T11:22:57.411Z,46.36
2023-01-19T11:24:28.948Z,44.02
2023-01-19T11:26:00.233Z,41.05
2023-01-19T11:27:31.674Z,45.72
2023-01-19T11:29:03.433Z,39.80
2023-01-19T11:30:34.779Z,45.64
2023-01-19T11:32:06.421Z,36.54
2023-01-19T11:33:37.692Z,44.15
2023-01-19T11:35:08.894Z,44.34
2023-01-19T11:36:40.315Z,52.15
2023-01-19T11:38:11.639Z,51.04
2023-01-19T11:39:43.286Z,59.00
2023-01-19T11:41:14.625Z,58.87
2023-01-19T11:42:45.950Z,52.72
2023-01-19T11:44:17.348Z,60.33
2023-01-19T11:45:48.713Z,57.65
2023-01-19T11:47:20.236Z,56.63
2023-01-19T11:48:51.704Z,60.56
2023-01-19T11:50:23.022Z,59.47
2023-01-19T11:51:54.228Z,67.34
2023-01-19T11:53:30.737Z,56.64
2023-01-19T11:55:02.310Z,58.78
2023-01-19T11:56:33.605Z,50.18
2023-01-19T11:58:04.963Z,60.64
2023-01-19T11:59:36.312Z,48.48
2023-01-19T12:01:07.921Z,64.59
2023-01-19T12:02:39.233Z,50.26
2023-01-19T12:04:10.776Z,60.62
2023-01-19T12:05:42.496Z,66.60
2023-01-19T12:07:14.376Z,71.36
2023-01-19T12:08:46.012Z,56.45
2023-01-19T12:10:17.621Z,67.22
2023-01-19T12:11:48.891Z,72.17
2023-01-19T12:13:20.472Z,70.85
2023-01-19T12:14:52.119Z,69.30
2023-01-19T12:16:23.688Z,64.81
2023-01-19T12:17:55.956Z,61.17
2023-01-19T12:19:27.547Z,50.37
2023-01-19T12:20:58.983Z,57.05
2023-01-19T12:22:31.080Z,71.87
2023-01-19T12:24:02.366Z,61.80
2023-01-19T12:25:33.702Z,63.33
2023-01-19T12:27:05.303Z,65.83
2023-01-19T12:28:36.822Z,54.16
2023-01-19T12:30:08.296Z,46.47
2023-01-19T12:31:41.052Z,60.68
2023-01-19T12:33:12.539Z,59.23
2023-01-19T12:34:44.089Z,51.68
2023-01-19T12:36:15.786Z,47.41
2023-01-19T12:37:47.311Z,52.94
2023-01-19T12:39:18.545Z,53.14
2023-01-19T12:40:50.302Z,57.83
2023-01-19T12:42:22.211Z,55.47
2023-01-19T12:43:53.988Z,54.84
2023-01-19T12:45:25.519Z,66.69
2023-01-19T12:46:57.086Z,62.67
2023-01-19T12:48:28.412Z,65.70
2023-01-19T12:50:00.267Z,61.29
2023-01-19T12:51:31.727Z,66.91
2023-01-19T12:53:03.043Z,66.00
2023-01-19T12:54:34.556Z,60.13
2023-01-19T12:56:05.976Z,59.25
2023-01-19T12:57:37.473Z,59.24
2023-01-19T12:59:09.045Z,49.61
2023-01-19T13:00:40.429Z,63.23
2023-01-19T13:02:12.388Z,67.19
2023-01-19T13:03:43.803Z,56.23
2023-01-19T13:05:15.193Z,57.86
2023-01-19T13:06:47.010Z,63.33
2023-01-19T13:08:18.630Z,62.82
2023-01-19T13:09:50.179Z,55.15
2023-01-19T13:11:22.833Z,61.28
2023-01-19T13:12:55.825Z,58.55
2023-01-19T13:14:27.361Z,55.37
2023-01-19T13:15:58.555Z,67.99
2023-01-19T13:17:30.703Z,66.44
2023-01-19T13:19:07.264Z,59.02
2023-01-19T13:20:38.785Z,51.94
2023-01-19T13:22:30.056Z,51.56
2023-01-19T13:24:24.190Z,65.09
2023-01-19T13:26:07.139Z,65.48
2023-01-19T13:27:39.051Z,58.66
2023-01-19T13:29:10.796Z,58.06
2023-01-19T13:30:42.264Z,63.39
2023-01-19T13:32:13.638Z,66.47
2023-01-19T13:33:45.639Z,65.86
2023-01-19T13:35:17.371Z,57.86
2023-01-19T13:36:49.025Z,56.17
2023-01-19T13:38:20.668Z,60.51
2023-01-19T13:39:52.262Z,49.75
2023-01-19T13:41:23.816Z,57.72
2023-01-19T13:42:55.337Z,56.70
2023-01-19T13:44:26.902Z,60.65
2023-01-19T13:45:58.509Z,53.23
2023-01-19T13:47:30.024Z,54.42
2023-01-19T13:49:01.643Z,62.97
2023-01-19T13:50:33.316Z,55.03
2023-01-19T13:52:04.711Z,63.52
2023-01-19T13:53:36.371Z,61.85
2023-01-19T13:55:08.380Z,59.88
2023-01-19T13:56:40.056Z,52.06
2023-01-19T13:58:11.663Z,52.93
2023-01-19T13:59:43.008Z,61.76
2023-01-19T14:01:14.885Z,53.45
2023-01-19T14:02:46.609Z,56.73
2023-01-19T14:04:18.060Z,63.56
2023-01-19T14:05:49.565Z,54.91
2023-01-19T14:07:21.090Z,55.39
2023-01-19T14:08:52.839Z,56.93
2023-01-19T14:10:24.421Z,51.57
2023-01-19T14:11:56.229Z,53.49
2023-01-19T14:13:47.825Z,52.96
2023-01-19T14:15:19.465Z,50.23
2023-01-19T14:16:50.809Z,41.49
2023-01-19T14:18:22.217Z,43.44
2023-01-19T14:19:53.825Z,41.79
2023-01-19T14:21:25.204Z,38.91
2023-01-19T14:22:56.440Z,54.30
2023-01-19T14:24:27.828Z,46.05
2023-01-19T14:25:59.263Z,48.39
2023-01-19T14:27:30.750Z,47.74
2023-01-19T14:29:02.282Z,53.70
2023-01-19T14:30:33.816Z,42.53
2023-01-19T14:32:06.325Z,49.80
2023-01-19T14:33:37.607Z,53.43
2023-01-19T14:35:24.116Z,56.33
2023-01-19T14:36:56.133Z,53.68
2023-01-19T14:38:27.456Z,52.03
2023-01-19T14:39:58.848Z,53.21
2023-01-19T14:41:30.274Z,48.87
2023-01-19T14:43:01.731Z,46.34
2023-01-19T14:44:33.079Z,51.10
2023-01-19T14:46:04.210Z,39.46
2023-01-19T14:47:35.555Z,47.17
2023-01-19T14:49:06.936Z,47.73
2023-01-19T14:50:38.190Z,46.15
2023-01-19T14:52:09.358Z,32.58
2023-01-19T14:53:41.200Z,32.29
2023-01-19T14:55:12.976Z,36.94
2023-01-19T14:56:44.428Z,34.25
2023-01-19T14:58:15.917Z,28.70
2023-01-19T14:59:47.225Z,35.51
2023-01-19T15:01:18.765Z,30.02
2023-01-19T15:02:50.231Z,36.40
2023-01-19T15:04:21.466Z,40.43
2023-01-19T15:05:52.972Z,39.71
2023-01-19T15:07:25.540Z,30.84
2023-01-19T15:08:57.395Z,34.28
2023-01-19T15:10:28.901Z,33.33
2023-01-19T15:12:00.319Z,35.03
2023-01-19T15:13:31.620Z,27.28
2023-01-19T15:15:03.440Z,29.93
2023-01-19T15:16:34.874Z,32.50
2023-01-19T15:18:24.181Z,32.06
2023-01-19T15:19:55.783Z,30.99
2023-01-19T15:21:27.132Z,31.38
2023-01-19T15:22:58.523Z,25.34
2023-01-19T15:24:29.730Z,33.57
2023-01-19T15:26:01.198Z,31.05
2023-01-19T15:27:32.926Z,30.16
2023-01-19T15:29:04.478Z,32.95
2023-01-19T15:30:36.761Z,31.24
2023-01-19T15:32:08.495Z,21.16
2023-01-19T15:33:40.237Z,26.81
2023-01-19T15:35:16.698Z,33.33
2023-01-19T15:36:48.152Z,36.84
2023-01-19T15:38:19.679Z,35.34
2023-01-19T15:39:51.029Z,41.71
2023-01-19T15:41:23.442Z,35.51
2023-01-19T15:42:54.939Z,38.30
2023-01-19T15:44:26.245Z,37.11
2023-01-19T15:45:57.702Z,30.87
2023-01-19T15:47:29.116Z,28.30
2023-01-19T15:49:00.271Z,36.42
2023-01-19T15:50:31.514Z,34.63
2023-01-19T15:52:02.854Z,35.24
2023-01-19T15:53:34.159Z,33.33
2023-01-19T15:55:05.568Z,34.22
2023-01-19T15:56:42.064Z,33.54
2023-01-19T15:58:14.001Z,33.92
2023-01-19T15:59:46.115Z,32.37
2023-01-19T16:01:17.685Z,33.17
2023-01-19T16:02:49.072Z,35.65
2023-01-19T16:04:20.447Z,30.59
2023-01-19T16:05:51.992Z,36.37
2023-01-19T16:07:23.439Z,36.97
2023-01-19T16:08:54.799Z,35.56
2023-01-19T16:10:26.601Z,36.85
2023-01-19T16:11:57.902Z,35.44
2023-01-19T16:13:29.234Z,37.00
2023-01-19T16:15:00.557Z,36.29
2023-01-19T16:16:32.043Z,34.12
2023-01-19T16:18:18.649Z,38.05
2023-01-19T16:19:50.252Z,37.67
2023-01-19T16:21:21.597Z,39.73
2023-01-19T16:22:53.760Z,37.25
2023-01-19T16:24:26.249Z,38.75
2023-01-19T16:25:57.612Z,40.42
2023-01-19T16:27:29.103Z,37.16
2023-01-19T16:29:00.599Z,38.36
2023-01-19T16:30:31.875Z,38.52
2023-01-19T16:32:03.310Z,39.68
2023-01-19T16:33:34.621Z,40.93
2023-01-19T16:35:06.002Z,42.70
2023-01-19T16:36:37.366Z,40.02
2023-01-19T16:38:08.630Z,39.91
2023-01-19T16:39:39.974Z,40.37
2023-01-19T16:41:11.155Z,39.19
2023-01-19T16:42:42.495Z,38.96
2023-01-19T16:44:14.019Z,40.36
2023-01-19T16:45:45.459Z,36.10
2023-01-19T16:47:16.915Z,33.36
2023-01-19T16:48:48.267Z,25.13
2023-01-19T16:50:19.564Z,32.01
2023-01-19T16:51:51.300Z,30.74
2023-01-19T16:53:27.619Z,32.33
2023-01-19T16:54:58.931Z,30.86
2023-01-19T16:56:35.328Z,28.12
2023-01-19T16:58:06.610Z,34.07
2023-01-19T16:59:38.069Z,35.88
2023-01-19T17:01:09.433Z,33.66
2023-01-19T17:02:41.352Z,31.05
2023-01-19T17:04:12.646Z,28.71
2023-01-19T17:05:43.983Z,31.33
2023-01-19T17:07:16.170Z,27.70
2023-01-19T17:08:48.854Z,30.67
2023-01-19T17:10:20.169Z,32.35
2023-01-19T17:11:51.510Z,29.22
2023-01-19T17:13:22.778Z,30.61
2023-01-19T17:14:54.160Z,32.52
2023-01-19T17:16:25.818Z,30.15
2023-01-19T17:17:57.488Z,31.55
2023-01-19T17:19:28.680Z,32.18
2023-01-19T17:21:20.092Z,30.97
2023-01-19T17:22:51.460Z,32.63
2023-01-19T17:24:23.055Z,34.96
2023-01-19T17:25:54.366Z,35.01
2023-01-19T17:27:25.588Z,35.31
2023-01-19T17:28:56.786Z,32.88
2023-01-19T17:30:28.289Z,26.11
2023-01-19T17:31:59.515Z,29.56
2023-01-19T17:33:30.918Z,27.08
2023-01-19T17:35:02.344Z,26.84
2023-01-19T17:36:33.577Z,33.24
2023-01-19T17:38:05.271Z,34.88
2023-01-19T17:39:36.818Z,31.07
2023-01-19T17:41:08.255Z,31.83
2023-01-19T17:42:39.796Z,33.65
2023-01-19T17:44:11.079Z,34.15
2023-01-19T17:45:42.598Z,34.12
2023-01-19T17:47:14.015Z,33.52
2023-01-19T17:48:45.640Z,37.50
2023-01-19T17:50:17.004Z,36.28
2023-01-19T17:51:48.183Z,33.94
2023-01-19T17:53:19.691Z,35.82
2023-01-19T17:54:51.237Z,35.62
2023-01-19T17:56:22.445Z,35.09
2023-01-19T17:57:53.680Z,35.35
2023-01-19T17:59:24.952Z,36.33
2023-01-19T18:00:56.188Z,36.76
2023-01-19T18:02:27.597Z,37.76
2023-01-19T18:03:59.116Z,36.79
2023-01-19T18:05:30.796Z,39.27
2023-01-19T18:07:02.373Z,37.42
2023-01-19T18:08:33.929Z,38.15
2023-01-19T18:10:05.135Z,36.13
2023-01-19T18:11:36.747Z,35.85
2023-01-19T18:13:08.586Z,38.99
2023-01-19T18:14:39.978Z,35.79
2023-01-19T18:16:11.339Z,35.45
2023-01-19T18:17:42.485Z,35.57
2023-01-19T18:19:14.076Z,34.56
2023-01-19T18:20:45.581Z,36.28
2023-01-19T18:22:17.194Z,38.04
2023-01-19T18:23:50.168Z,39.19
2023-01-19T18:25:21.474Z,35.64
2023-01-19T18:26:56.384Z,36.38
2023-01-19T18:28:30.284Z,39.63
2023-01-19T18:30:20.237Z,38.38
2023-01-19T18:31:52.152Z,38.42
2023-01-19T18:33:23.686Z,40.39
2023-01-19T18:34:54.886Z,38.06
2023-01-19T18:36:26.098Z,36.48
2023-01-19T18:37:57.563Z,36.34
2023-01-19T18:39:28.799Z,40.25
2023-01-19T18:41:00.168Z,36.81
2023-01-19T18:42:31.504Z,35.11
2023-01-19T18:44:03.130Z,38.85
2023-01-19T18:45:34.300Z,38.82
2023-01-19T18:47:39.350Z,39.75
2023-01-19T18:49:26.124Z,40.74
2023-01-19T18:50:57.880Z,42.68
2023-01-19T18:52:29.470Z,40.64
2023-01-19T18:54:01.305Z,41.40
2023-01-19T18:55:32.943Z,39.85
2023-01-19T18:57:16.726Z,40.84
2023-01-19T18:58:48.337Z,39.18
2023-01-19T19:00:19.843Z,42.97
2023-01-19T19:01:51.273Z,39.90
2023-01-19T19:03:22.665Z,40.74
2023-01-19T19:04:53.914Z,40.99
2023-01-19T19:06:25.278Z,41.80
2023-01-19T19:07:56.803Z,40.76
2023-01-19T19:09:28.206Z,43.31
2023-01-19T19:10:59.592Z,40.81
2023-01-19T19:12:36.071Z,40.41
2023-01-19T19:14:24.112Z,41.64
2023-01-19T19:15:59.043Z,40.58
2023-01-19T19:17:38.950Z,41.88
2023-01-19T19:20:13.035Z,42.39
2023-01-19T19:21:44.636Z,39.61
2023-01-19T19:23:16.067Z,37.69
2023-01-19T19:25:03.259Z,36.00
2023-01-19T19:26:35.385Z,39.15
2023-01-19T19:28:07.398Z,38.56
2023-01-19T19:29:39.158Z,39.35
2023-01-19T19:31:16.310Z,35.79
2023-01-19T19:32:48.119Z,39.21
2023-01-19T19:34:20.071Z,34.39
2023-01-19T19:38:04.560Z,32.47
2023-01-19T19:39:36.664Z,36.63
2023-01-19T19:41:08.382Z,35.48
2023-01-19T19:42:40.173Z,36.99
2023-01-19T19:44:12.012Z,34.34
2023-01-19T19:45:43.824Z,36.82
2023-01-19T19:47:15.770Z,34.03
2023-01-19T19:48:47.688Z,38.85
2023-01-19T19:50:19.645Z,36.18
2023-01-19T19:51:51.478Z,34.52
2023-01-19T19:53:23.255Z,36.63
2023-01-19T19:54:55.156Z,37.68
2023-01-19T19:56:26.727Z,36.69
2023-01-19T19:58:45.693Z,34.40
2023-01-19T20:01:11.481Z,33.90
2023-01-19T20:02:43.762Z,31.88
2023-01-19T20:04:15.469Z,36.03
2023-01-19T20:06:22.242Z,35.38